This is the latest recevied weather packets stored in our database for station/object OK1TOM-6. If no packets are shown the sender has not sent any weather packets the latest 10 day(s).
| Time | Temp. | Humidity | Pressure | Rain* | Wind** | Luminosity | Snow |
|---|---|---|---|---|---|---|---|
| 1777870539 | 13.89° C | 59% | 1017 hPa | 0 mm | - | - | - |
| 1777869936 | 13.89° C | 60% | 1016.9 hPa | 0 mm | - | - | - |
| 1777869332 | 13.89° C | 59% | 1016.8 hPa | 0 mm | - | - | - |
| 1777868729 | 13.89° C | 59% | 1016.5 hPa | 0 mm | - | - | - |
| 1777868125 | 13.89° C | 59% | 1016.6 hPa | 0 mm | - | - | - |
| 1777867522 | 13.89° C | 60% | 1016.7 hPa | 0 mm | - | - | - |
| 1777866918 | 12.78° C | 66% | 1016.7 hPa | 0 mm | - | - | - |
| 1777866315 | 13.33° C | 64% | 1016.7 hPa | 0 mm | - | - | - |
| 1777865772 | 13.33° C | 62% | 1016.8 hPa | 0 mm | - | - | - |
| 1777865168 | 12.22° C | 68% | 1016.7 hPa | 0 mm | - | - | - |
| 1777864565 | 12.78° C | 67% | 1016.6 hPa | 0 mm | - | - | - |
| 1777863961 | 12.78° C | 68% | 1016.6 hPa | 0 mm | - | - | - |
| 1777863358 | 12.78° C | 63% | 1016.5 hPa | 0 mm | - | - | - |
| 1777862755 | 12.22° C | 70% | 1016.2 hPa | 0 mm | - | - | - |
| 1777862151 | 12.78° C | 68% | 1016.5 hPa | 0 mm | - | - | - |
| 1777861548 | 12.78° C | 65% | 1016.5 hPa | 0 mm | - | - | - |
| 1777860944 | 12.78° C | 65% | 1016.5 hPa | 0 mm | - | - | - |
| 1777860341 | 12.78° C | 66% | 1016.2 hPa | 0 mm | - | - | - |
| 1777859738 | 12.78° C | 67% | 1016.1 hPa | 0 mm | - | - | - |
| 1777859134 | 13.33° C | 64% | 1016.3 hPa | 0 mm | - | - | - |
| 1777858531 | 13.33° C | 63% | 1016.4 hPa | 0 mm | - | - | - |
| 1777857927 | 13.33° C | 63% | 1016.3 hPa | 0 mm | - | - | - |
| 1777857324 | 13.33° C | 63% | 1016.3 hPa | 0 mm | - | - | - |
| 1777856720 | 13.33° C | 63% | 1016.4 hPa | 0 mm | - | - | - |
| 1777856117 | 12.78° C | 63% | 1016.5 hPa | 0 mm | - | - | - |
* Rain latest hour (hover to see other rain measurements)
** Current wind speed in m/s (hover to see current wind gust speed)